sensor_id;sensor_type;location;lat;lon;timestamp;P1;durP1;ratioP1;P2;durP2;ratioP2
3022;SDS011;1521;53.584;9.938;2023-03-07T00:00:31;36.40;;;17.87;;
3022;SDS011;1521;53.584;9.938;2023-03-07T00:02:56;38.87;;;18.80;;
3022;SDS011;1521;53.584;9.938;2023-03-07T00:05:22;36.03;;;19.33;;
3022;SDS011;1521;53.584;9.938;2023-03-07T00:07:48;36.93;;;19.07;;
3022;SDS011;1521;53.584;9.938;2023-03-07T00:10:13;46.33;;;21.60;;
3022;SDS011;1521;53.584;9.938;2023-03-07T00:12:39;42.53;;;20.60;;
3022;SDS011;1521;53.584;9.938;2023-03-07T00:15:05;41.30;;;21.60;;
3022;SDS011;1521;53.584;9.938;2023-03-07T00:17:34;40.47;;;20.47;;
3022;SDS011;1521;53.584;9.938;2023-03-07T00:20:06;37.27;;;19.17;;
3022;SDS011;1521;53.584;9.938;2023-03-07T00:22:34;42.90;;;22.10;;
3022;SDS011;1521;53.584;9.938;2023-03-07T00:25:00;39.93;;;20.47;;
3022;SDS011;1521;53.584;9.938;2023-03-07T00:27:26;46.00;;;21.63;;
3022;SDS011;1521;53.584;9.938;2023-03-07T00:29:53;37.03;;;20.40;;
3022;SDS011;1521;53.584;9.938;2023-03-07T00:32:18;49.77;;;23.40;;
3022;SDS011;1521;53.584;9.938;2023-03-07T00:34:44;49.37;;;24.67;;
3022;SDS011;1521;53.584;9.938;2023-03-07T00:37:09;46.97;;;24.20;;
3022;SDS011;1521;53.584;9.938;2023-03-07T00:39:35;51.47;;;24.67;;
3022;SDS011;1521;53.584;9.938;2023-03-07T00:42:01;57.27;;;27.67;;
3022;SDS011;1521;53.584;9.938;2023-03-07T00:44:26;54.93;;;26.83;;
3022;SDS011;1521;53.584;9.938;2023-03-07T00:46:54;54.70;;;26.43;;
3022;SDS011;1521;53.584;9.938;2023-03-07T00:49:20;57.90;;;28.20;;
3022;SDS011;1521;53.584;9.938;2023-03-07T00:51:47;59.70;;;28.13;;
3022;SDS011;1521;53.584;9.938;2023-03-07T00:54:12;67.47;;;28.80;;
3022;SDS011;1521;53.584;9.938;2023-03-07T00:56:38;59.90;;;28.97;;
3022;SDS011;1521;53.584;9.938;2023-03-07T00:59:04;60.30;;;29.83;;
3022;SDS011;1521;53.584;9.938;2023-03-07T01:01:30;62.60;;;30.87;;
3022;SDS011;1521;53.584;9.938;2023-03-07T01:03:56;65.10;;;29.13;;
3022;SDS011;1521;53.584;9.938;2023-03-07T01:06:23;61.50;;;29.67;;
3022;SDS011;1521;53.584;9.938;2023-03-07T01:08:50;56.83;;;27.47;;
3022;SDS011;1521;53.584;9.938;2023-03-07T01:11:16;58.90;;;29.80;;
3022;SDS011;1521;53.584;9.938;2023-03-07T01:13:42;63.03;;;29.47;;
3022;SDS011;1521;53.584;9.938;2023-03-07T01:18:35;57.53;;;27.67;;
3022;SDS011;1521;53.584;9.938;2023-03-07T01:21:01;61.00;;;28.57;;
3022;SDS011;1521;53.584;9.938;2023-03-07T01:23:34;60.67;;;29.33;;
3022;SDS011;1521;53.584;9.938;2023-03-07T01:25:59;58.30;;;26.47;;
3022;SDS011;1521;53.584;9.938;2023-03-07T01:28:25;61.97;;;28.93;;
3022;SDS011;1521;53.584;9.938;2023-03-07T01:30:57;56.40;;;26.90;;
3022;SDS011;1521;53.584;9.938;2023-03-07T01:33:23;57.00;;;27.27;;
3022;SDS011;1521;53.584;9.938;2023-03-07T01:35:49;49.23;;;25.67;;
3022;SDS011;1521;53.584;9.938;2023-03-07T01:38:15;58.30;;;26.93;;
3022;SDS011;1521;53.584;9.938;2023-03-07T01:40:41;55.50;;;26.50;;
3022;SDS011;1521;53.584;9.938;2023-03-07T01:43:26;55.70;;;25.87;;
3022;SDS011;1521;53.584;9.938;2023-03-07T01:48:42;58.07;;;27.83;;
3022;SDS011;1521;53.584;9.938;2023-03-07T01:51:09;57.57;;;26.27;;
3022;SDS011;1521;53.584;9.938;2023-03-07T01:53:35;59.80;;;27.07;;
3022;SDS011;1521;53.584;9.938;2023-03-07T01:56:01;58.00;;;26.07;;
3022;SDS011;1521;53.584;9.938;2023-03-07T01:58:27;56.53;;;27.60;;
3022;SDS011;1521;53.584;9.938;2023-03-07T02:00:53;56.20;;;26.47;;
3022;SDS011;1521;53.584;9.938;2023-03-07T02:03:21;62.27;;;28.00;;
3022;SDS011;1521;53.584;9.938;2023-03-07T02:05:58;62.30;;;29.63;;
3022;SDS011;1521;53.584;9.938;2023-03-07T02:08:28;56.50;;;26.97;;
3022;SDS011;1521;53.584;9.938;2023-03-07T02:10:55;57.43;;;27.40;;
3022;SDS011;1521;53.584;9.938;2023-03-07T02:13:21;63.07;;;28.73;;
3022;SDS011;1521;53.584;9.938;2023-03-07T02:15:46;57.00;;;27.33;;
3022;SDS011;1521;53.584;9.938;2023-03-07T02:18:16;63.87;;;28.63;;
3022;SDS011;1521;53.584;9.938;2023-03-07T02:24:06;61.33;;;27.87;;
3022;SDS011;1521;53.584;9.938;2023-03-07T02:28:33;62.30;;;29.00;;
3022;SDS011;1521;53.584;9.938;2023-03-07T02:31:00;66.10;;;28.83;;
3022;SDS011;1521;53.584;9.938;2023-03-07T02:33:28;57.47;;;27.27;;
3022;SDS011;1521;53.584;9.938;2023-03-07T02:35:54;64.77;;;29.07;;
3022;SDS011;1521;53.584;9.938;2023-03-07T02:38:24;60.57;;;27.60;;
3022;SDS011;1521;53.584;9.938;2023-03-07T02:40:53;59.03;;;27.43;;
3022;SDS011;1521;53.584;9.938;2023-03-07T02:43:20;70.83;;;29.37;;
3022;SDS011;1521;53.584;9.938;2023-03-07T02:45:46;54.83;;;26.43;;
3022;SDS011;1521;53.584;9.938;2023-03-07T02:48:12;61.67;;;27.30;;
3022;SDS011;1521;53.584;9.938;2023-03-07T02:50:38;56.03;;;27.63;;
3022;SDS011;1521;53.584;9.938;2023-03-07T02:53:04;66.13;;;28.67;;
3022;SDS011;1521;53.584;9.938;2023-03-07T02:55:30;62.43;;;26.07;;
3022;SDS011;1521;53.584;9.938;2023-03-07T02:57:56;56.37;;;27.57;;
3022;SDS011;1521;53.584;9.938;2023-03-07T03:00:21;59.73;;;28.30;;
3022;SDS011;1521;53.584;9.938;2023-03-07T03:02:47;58.20;;;26.17;;
3022;SDS011;1521;53.584;9.938;2023-03-07T03:05:13;60.70;;;27.10;;
3022;SDS011;1521;53.584;9.938;2023-03-07T03:07:38;58.57;;;27.33;;
3022;SDS011;1521;53.584;9.938;2023-03-07T03:10:04;60.13;;;27.30;;
3022;SDS011;1521;53.584;9.938;2023-03-07T03:12:30;59.20;;;27.20;;
3022;SDS011;1521;53.584;9.938;2023-03-07T03:14:56;59.10;;;27.33;;
3022;SDS011;1521;53.584;9.938;2023-03-07T03:17:22;58.70;;;26.17;;
3022;SDS011;1521;53.584;9.938;2023-03-07T03:19:48;56.20;;;26.27;;
3022;SDS011;1521;53.584;9.938;2023-03-07T03:22:13;53.80;;;25.30;;
3022;SDS011;1521;53.584;9.938;2023-03-07T03:24:40;55.53;;;25.60;;
3022;SDS011;1521;53.584;9.938;2023-03-07T03:27:06;49.10;;;23.47;;
3022;SDS011;1521;53.584;9.938;2023-03-07T03:29:32;59.03;;;25.30;;
3022;SDS011;1521;53.584;9.938;2023-03-07T03:31:58;44.80;;;23.60;;
3022;SDS011;1521;53.584;9.938;2023-03-07T03:34:23;50.67;;;23.70;;
3022;SDS011;1521;53.584;9.938;2023-03-07T03:36:49;46.67;;;22.47;;
3022;SDS011;1521;53.584;9.938;2023-03-07T03:39:16;50.30;;;23.53;;
3022;SDS011;1521;53.584;9.938;2023-03-07T03:41:41;46.33;;;21.83;;
3022;SDS011;1521;53.584;9.938;2023-03-07T03:44:07;49.53;;;24.23;;
3022;SDS011;1521;53.584;9.938;2023-03-07T03:46:34;44.40;;;21.53;;
3022;SDS011;1521;53.584;9.938;2023-03-07T03:49:00;48.37;;;22.53;;
3022;SDS011;1521;53.584;9.938;2023-03-07T03:51:25;47.93;;;23.13;;
3022;SDS011;1521;53.584;9.938;2023-03-07T03:53:52;54.43;;;22.10;;
3022;SDS011;1521;53.584;9.938;2023-03-07T03:56:20;49.00;;;22.70;;
3022;SDS011;1521;53.584;9.938;2023-03-07T03:58:47;45.17;;;23.00;;
3022;SDS011;1521;53.584;9.938;2023-03-07T04:01:15;40.93;;;20.43;;
3022;SDS011;1521;53.584;9.938;2023-03-07T04:03:42;46.30;;;21.27;;
3022;SDS011;1521;53.584;9.938;2023-03-07T04:06:10;41.10;;;19.43;;
3022;SDS011;1521;53.584;9.938;2023-03-07T04:08:38;47.90;;;20.03;;
3022;SDS011;1521;53.584;9.938;2023-03-07T04:11:04;40.60;;;19.27;;
3022;SDS011;1521;53.584;9.938;2023-03-07T04:13:30;41.50;;;20.43;;
3022;SDS011;1521;53.584;9.938;2023-03-07T04:15:57;36.37;;;18.57;;
3022;SDS011;1521;53.584;9.938;2023-03-07T04:18:23;36.50;;;17.53;;
3022;SDS011;1521;53.584;9.938;2023-03-07T04:20:49;34.37;;;17.60;;
3022;SDS011;1521;53.584;9.938;2023-03-07T04:23:16;36.43;;;16.97;;
3022;SDS011;1521;53.584;9.938;2023-03-07T04:25:50;32.43;;;16.40;;
3022;SDS011;1521;53.584;9.938;2023-03-07T04:28:23;31.83;;;14.70;;
3022;SDS011;1521;53.584;9.938;2023-03-07T04:30:52;24.10;;;14.10;;
3022;SDS011;1521;53.584;9.938;2023-03-07T04:33:18;22.50;;;12.60;;
3022;SDS011;1521;53.584;9.938;2023-03-07T04:35:44;28.30;;;12.37;;
3022;SDS011;1521;53.584;9.938;2023-03-07T04:38:10;26.43;;;12.13;;
3022;SDS011;1521;53.584;9.938;2023-03-07T04:40:36;22.63;;;11.50;;
3022;SDS011;1521;53.584;9.938;2023-03-07T04:43:02;23.63;;;10.23;;
3022;SDS011;1521;53.584;9.938;2023-03-07T04:45:29;18.77;;;9.20;;
3022;SDS011;1521;53.584;9.938;2023-03-07T04:47:56;19.00;;;8.23;;
3022;SDS011;1521;53.584;9.938;2023-03-07T04:50:21;17.40;;;7.80;;
3022;SDS011;1521;53.584;9.938;2023-03-07T04:52:47;25.03;;;7.50;;
3022;SDS011;1521;53.584;9.938;2023-03-07T04:55:14;17.17;;;7.10;;
3022;SDS011;1521;53.584;9.938;2023-03-07T04:57:40;12.97;;;7.00;;
3022;SDS011;1521;53.584;9.938;2023-03-07T05:00:06;17.33;;;5.80;;
3022;SDS011;1521;53.584;9.938;2023-03-07T05:02:33;8.63;;;4.93;;
3022;SDS011;1521;53.584;9.938;2023-03-07T05:04:59;15.00;;;5.70;;
3022;SDS011;1521;53.584;9.938;2023-03-07T05:07:25;14.20;;;4.30;;
3022;SDS011;1521;53.584;9.938;2023-03-07T05:09:51;9.07;;;4.07;;
3022;SDS011;1521;53.584;9.938;2023-03-07T05:12:17;9.00;;;4.00;;
3022;SDS011;1521;53.584;9.938;2023-03-07T05:14:43;7.10;;;3.53;;
3022;SDS011;1521;53.584;9.938;2023-03-07T05:17:08;10.73;;;3.90;;
3022;SDS011;1521;53.584;9.938;2023-03-07T05:19:34;11.23;;;4.00;;
3022;SDS011;1521;53.584;9.938;2023-03-07T05:21:59;12.13;;;3.57;;
3022;SDS011;1521;53.584;9.938;2023-03-07T05:24:26;7.10;;;3.43;;
3022;SDS011;1521;53.584;9.938;2023-03-07T05:26:52;10.37;;;3.10;;
3022;SDS011;1521;53.584;9.938;2023-03-07T05:29:17;10.00;;;3.10;;
3022;SDS011;1521;53.584;9.938;2023-03-07T05:31:43;7.87;;;2.87;;
3022;SDS011;1521;53.584;9.938;2023-03-07T05:34:08;7.37;;;2.97;;
3022;SDS011;1521;53.584;9.938;2023-03-07T05:36:34;13.10;;;3.40;;
3022;SDS011;1521;53.584;9.938;2023-03-07T05:39:00;7.30;;;2.60;;
3022;SDS011;1521;53.584;9.938;2023-03-07T05:41:26;10.67;;;3.50;;
3022;SDS011;1521;53.584;9.938;2023-03-07T05:43:52;9.47;;;3.10;;
3022;SDS011;1521;53.584;9.938;2023-03-07T05:46:19;14.20;;;3.03;;
3022;SDS011;1521;53.584;9.938;2023-03-07T05:48:45;7.57;;;2.63;;
3022;SDS011;1521;53.584;9.938;2023-03-07T05:51:10;8.17;;;2.53;;
3022;SDS011;1521;53.584;9.938;2023-03-07T05:53:36;9.70;;;2.07;;
3022;SDS011;1521;53.584;9.938;2023-03-07T05:56:01;10.20;;;2.20;;
3022;SDS011;1521;53.584;9.938;2023-03-07T05:58:27;7.63;;;2.30;;
3022;SDS011;1521;53.584;9.938;2023-03-07T06:00:53;5.33;;;1.93;;
3022;SDS011;1521;53.584;9.938;2023-03-07T06:03:18;9.60;;;2.33;;
3022;SDS011;1521;53.584;9.938;2023-03-07T06:05:44;13.10;;;2.53;;
3022;SDS011;1521;53.584;9.938;2023-03-07T06:08:13;9.30;;;2.50;;
3022;SDS011;1521;53.584;9.938;2023-03-07T06:10:39;6.80;;;1.93;;
3022;SDS011;1521;53.584;9.938;2023-03-07T06:13:10;3.07;;;1.50;;
3022;SDS011;1521;53.584;9.938;2023-03-07T06:15:40;11.80;;;2.30;;
3022;SDS011;1521;53.584;9.938;2023-03-07T06:18:06;14.43;;;2.83;;
3022;SDS011;1521;53.584;9.938;2023-03-07T06:20:31;8.47;;;1.90;;
3022;SDS011;1521;53.584;9.938;2023-03-07T06:22:57;9.07;;;1.93;;
3022;SDS011;1521;53.584;9.938;2023-03-07T06:25:25;8.03;;;2.00;;
3022;SDS011;1521;53.584;9.938;2023-03-07T06:27:50;10.83;;;2.30;;
3022;SDS011;1521;53.584;9.938;2023-03-07T06:30:16;6.63;;;2.00;;
3022;SDS011;1521;53.584;9.938;2023-03-07T06:32:42;3.07;;;1.63;;
3022;SDS011;1521;53.584;9.938;2023-03-07T06:35:08;12.13;;;1.80;;
3022;SDS011;1521;53.584;9.938;2023-03-07T06:37:34;7.43;;;2.07;;
3022;SDS011;1521;53.584;9.938;2023-03-07T06:39:59;6.13;;;1.47;;
3022;SDS011;1521;53.584;9.938;2023-03-07T06:42:30;13.00;;;2.00;;
3022;SDS011;1521;53.584;9.938;2023-03-07T06:44:55;10.80;;;1.87;;
3022;SDS011;1521;53.584;9.938;2023-03-07T06:47:21;6.17;;;1.43;;
3022;SDS011;1521;53.584;9.938;2023-03-07T06:49:46;6.10;;;1.47;;
3022;SDS011;1521;53.584;9.938;2023-03-07T06:52:12;6.10;;;1.33;;
3022;SDS011;1521;53.584;9.938;2023-03-07T06:54:37;5.43;;;1.40;;
3022;SDS011;1521;53.584;9.938;2023-03-07T06:57:03;7.10;;;1.73;;
3022;SDS011;1521;53.584;9.938;2023-03-07T06:59:29;6.43;;;2.20;;
3022;SDS011;1521;53.584;9.938;2023-03-07T07:01:54;9.07;;;2.27;;
3022;SDS011;1521;53.584;9.938;2023-03-07T07:04:20;6.30;;;1.77;;
3022;SDS011;1521;53.584;9.938;2023-03-07T07:06:45;3.77;;;1.43;;
3022;SDS011;1521;53.584;9.938;2023-03-07T07:09:11;7.27;;;2.10;;
3022;SDS011;1521;53.584;9.938;2023-03-07T07:11:38;6.30;;;1.43;;
3022;SDS011;1521;53.584;9.938;2023-03-07T07:14:03;15.33;;;1.80;;
3022;SDS011;1521;53.584;9.938;2023-03-07T07:16:29;13.47;;;1.67;;
3022;SDS011;1521;53.584;9.938;2023-03-07T07:18:57;9.63;;;2.20;;
3022;SDS011;1521;53.584;9.938;2023-03-07T07:21:23;10.13;;;1.80;;
3022;SDS011;1521;53.584;9.938;2023-03-07T07:23:48;7.40;;;1.90;;
3022;SDS011;1521;53.584;9.938;2023-03-07T07:26:14;4.83;;;1.30;;
3022;SDS011;1521;53.584;9.938;2023-03-07T07:28:39;11.47;;;1.90;;
3022;SDS011;1521;53.584;9.938;2023-03-07T07:31:05;5.33;;;1.57;;
3022;SDS011;1521;53.584;9.938;2023-03-07T07:33:31;6.17;;;1.90;;
3022;SDS011;1521;53.584;9.938;2023-03-07T07:35:56;7.03;;;1.87;;
3022;SDS011;1521;53.584;9.938;2023-03-07T07:38:22;7.90;;;1.40;;
3022;SDS011;1521;53.584;9.938;2023-03-07T07:40:47;12.53;;;2.13;;
3022;SDS011;1521;53.584;9.938;2023-03-07T07:43:14;6.83;;;2.17;;
3022;SDS011;1521;53.584;9.938;2023-03-07T07:45:41;9.23;;;1.93;;
3022;SDS011;1521;53.584;9.938;2023-03-07T07:48:06;12.70;;;2.13;;
3022;SDS011;1521;53.584;9.938;2023-03-07T07:50:32;12.60;;;2.43;;
3022;SDS011;1521;53.584;9.938;2023-03-07T07:52:58;8.20;;;2.50;;
3022;SDS011;1521;53.584;9.938;2023-03-07T07:55:23;10.30;;;1.93;;
3022;SDS011;1521;53.584;9.938;2023-03-07T07:57:49;6.77;;;2.10;;
3022;SDS011;1521;53.584;9.938;2023-03-07T08:00:16;13.00;;;2.30;;
3022;SDS011;1521;53.584;9.938;2023-03-07T08:02:45;9.37;;;2.30;;
3022;SDS011;1521;53.584;9.938;2023-03-07T08:05:13;8.67;;;2.10;;
3022;SDS011;1521;53.584;9.938;2023-03-07T08:07:39;7.30;;;1.83;;
3022;SDS011;1521;53.584;9.938;2023-03-07T08:10:05;4.60;;;1.23;;
3022;SDS011;1521;53.584;9.938;2023-03-07T08:12:31;14.97;;;2.83;;
3022;SDS011;1521;53.584;9.938;2023-03-07T08:14:57;6.27;;;1.90;;
3022;SDS011;1521;53.584;9.938;2023-03-07T08:17:23;8.27;;;1.80;;
3022;SDS011;1521;53.584;9.938;2023-03-07T08:19:48;10.80;;;2.07;;
3022;SDS011;1521;53.584;9.938;2023-03-07T08:22:14;10.63;;;1.90;;
3022;SDS011;1521;53.584;9.938;2023-03-07T08:24:40;7.93;;;1.73;;
3022;SDS011;1521;53.584;9.938;2023-03-07T08:27:06;7.20;;;2.30;;
3022;SDS011;1521;53.584;9.938;2023-03-07T08:29:32;9.57;;;2.40;;
3022;SDS011;1521;53.584;9.938;2023-03-07T08:31:59;3.43;;;1.53;;
3022;SDS011;1521;53.584;9.938;2023-03-07T08:34:25;9.73;;;1.60;;
3022;SDS011;1521;53.584;9.938;2023-03-07T08:36:50;10.67;;;2.27;;
3022;SDS011;1521;53.584;9.938;2023-03-07T08:39:17;15.63;;;2.63;;
3022;SDS011;1521;53.584;9.938;2023-03-07T08:41:43;9.87;;;2.20;;
3022;SDS011;1521;53.584;9.938;2023-03-07T08:44:08;8.87;;;2.13;;
3022;SDS011;1521;53.584;9.938;2023-03-07T08:46:34;7.10;;;2.87;;
3022;SDS011;1521;53.584;9.938;2023-03-07T08:48:59;8.03;;;2.13;;
3022;SDS011;1521;53.584;9.938;2023-03-07T08:51:25;5.73;;;1.70;;
3022;SDS011;1521;53.584;9.938;2023-03-07T08:53:51;9.10;;;2.13;;
3022;SDS011;1521;53.584;9.938;2023-03-07T08:56:17;11.03;;;2.03;;
3022;SDS011;1521;53.584;9.938;2023-03-07T08:58:43;11.10;;;1.90;;
3022;SDS011;1521;53.584;9.938;2023-03-07T09:01:10;11.20;;;1.80;;
3022;SDS011;1521;53.584;9.938;2023-03-07T09:03:37;11.43;;;2.10;;
3022;SDS011;1521;53.584;9.938;2023-03-07T09:06:03;12.90;;;2.33;;
3022;SDS011;1521;53.584;9.938;2023-03-07T09:08:30;7.43;;;1.90;;
3022;SDS011;1521;53.584;9.938;2023-03-07T09:10:59;16.63;;;3.00;;
3022;SDS011;1521;53.584;9.938;2023-03-07T09:13:27;7.10;;;2.47;;
3022;SDS011;1521;53.584;9.938;2023-03-07T09:15:53;12.83;;;2.30;;
3022;SDS011;1521;53.584;9.938;2023-03-07T09:18:18;11.67;;;2.67;;
3022;SDS011;1521;53.584;9.938;2023-03-07T09:20:46;14.67;;;2.57;;
3022;SDS011;1521;53.584;9.938;2023-03-07T09:23:12;9.80;;;2.20;;
3022;SDS011;1521;53.584;9.938;2023-03-07T09:25:37;11.73;;;2.30;;
3022;SDS011;1521;53.584;9.938;2023-03-07T09:28:04;12.93;;;2.23;;
3022;SDS011;1521;53.584;9.938;2023-03-07T09:30:30;14.73;;;2.90;;
3022;SDS011;1521;53.584;9.938;2023-03-07T09:32:55;12.23;;;2.50;;
3022;SDS011;1521;53.584;9.938;2023-03-07T09:35:23;10.23;;;2.23;;
3022;SDS011;1521;53.584;9.938;2023-03-07T09:37:49;7.70;;;1.80;;
3022;SDS011;1521;53.584;9.938;2023-03-07T09:40:17;11.60;;;2.20;;
3022;SDS011;1521;53.584;9.938;2023-03-07T09:45:30;6.60;;;2.00;;
3022;SDS011;1521;53.584;9.938;2023-03-07T09:59:43;20.07;;;1.97;;
3022;SDS011;1521;53.584;9.938;2023-03-07T10:02:04;10.03;;;1.70;;
3022;SDS011;1521;53.584;9.938;2023-03-07T10:04:54;6.87;;;1.23;;
3022;SDS011;1521;53.584;9.938;2023-03-07T10:07:24;6.67;;;1.53;;
3022;SDS011;1521;53.584;9.938;2023-03-07T10:09:52;7.60;;;1.90;;
3022;SDS011;1521;53.584;9.938;2023-03-07T10:12:45;13.27;;;2.03;;
3022;SDS011;1521;53.584;9.938;2023-03-07T10:15:34;7.30;;;1.27;;
3022;SDS011;1521;53.584;9.938;2023-03-07T10:20:51;8.17;;;1.90;;
3022;SDS011;1521;53.584;9.938;2023-03-07T10:23:26;2.90;;;1.13;;
3022;SDS011;1521;53.584;9.938;2023-03-07T10:26:33;6.07;;;1.13;;
3022;SDS011;1521;53.584;9.938;2023-03-07T10:28:56;13.57;;;1.50;;
3022;SDS011;1521;53.584;9.938;2023-03-07T10:31:26;5.80;;;1.20;;
3022;SDS011;1521;53.584;9.938;2023-03-07T10:33:56;5.77;;;1.23;;
3022;SDS011;1521;53.584;9.938;2023-03-07T10:36:37;5.53;;;1.10;;
3022;SDS011;1521;53.584;9.938;2023-03-07T10:41:58;4.03;;;1.17;;
3022;SDS011;1521;53.584;9.938;2023-03-07T10:44:23;7.80;;;1.47;;
3022;SDS011;1521;53.584;9.938;2023-03-07T10:46:56;12.03;;;1.70;;
3022;SDS011;1521;53.584;9.938;2023-03-07T10:49:24;6.40;;;1.50;;
3022;SDS011;1521;53.584;9.938;2023-03-07T10:54:43;6.80;;;1.37;;
3022;SDS011;1521;53.584;9.938;2023-03-07T10:57:10;8.03;;;1.70;;
3022;SDS011;1521;53.584;9.938;2023-03-07T10:59:43;21.63;;;1.90;;
3022;SDS011;1521;53.584;9.938;2023-03-07T11:05:01;8.17;;;1.53;;
3022;SDS011;1521;53.584;9.938;2023-03-07T11:07:52;9.67;;;1.63;;
3022;SDS011;1521;53.584;9.938;2023-03-07T11:12:58;9.83;;;2.03;;
3022;SDS011;1521;53.584;9.938;2023-03-07T11:15:41;12.03;;;1.80;;
3022;SDS011;1521;53.584;9.938;2023-03-07T11:18:30;4.37;;;1.50;;
3022;SDS011;1521;53.584;9.938;2023-03-07T11:20:56;5.83;;;1.70;;
3022;SDS011;1521;53.584;9.938;2023-03-07T11:23:26;7.57;;;1.57;;
3022;SDS011;1521;53.584;9.938;2023-03-07T11:26:12;11.80;;;1.97;;
3022;SDS011;1521;53.584;9.938;2023-03-07T11:28:40;11.53;;;2.07;;
3022;SDS011;1521;53.584;9.938;2023-03-07T11:36:44;13.27;;;1.60;;
3022;SDS011;1521;53.584;9.938;2023-03-07T11:39:33;13.47;;;1.70;;
3022;SDS011;1521;53.584;9.938;2023-03-07T11:42:23;6.43;;;1.73;;
3022;SDS011;1521;53.584;9.938;2023-03-07T11:47:51;9.70;;;1.97;;
3022;SDS011;1521;53.584;9.938;2023-03-07T11:55:40;6.80;;;1.20;;
3022;SDS011;1521;53.584;9.938;2023-03-07T12:11:56;2.30;;;1.00;;
3022;SDS011;1521;53.584;9.938;2023-03-07T12:20:29;12.33;;;1.90;;
3022;SDS011;1521;53.584;9.938;2023-03-07T12:23:19;12.63;;;1.53;;
3022;SDS011;1521;53.584;9.938;2023-03-07T12:26:21;6.50;;;1.57;;
3022;SDS011;1521;53.584;9.938;2023-03-07T12:31:50;4.33;;;1.27;;
3022;SDS011;1521;53.584;9.938;2023-03-07T12:36:51;4.60;;;1.20;;
3022;SDS011;1521;53.584;9.938;2023-03-07T12:39:22;3.57;;;1.60;;
3022;SDS011;1521;53.584;9.938;2023-03-07T12:52:24;4.20;;;1.37;;
3022;SDS011;1521;53.584;9.938;2023-03-07T12:57:40;5.97;;;1.23;;
3022;SDS011;1521;53.584;9.938;2023-03-07T13:00:09;7.60;;;1.37;;
3022;SDS011;1521;53.584;9.938;2023-03-07T13:05:42;6.20;;;1.57;;
3022;SDS011;1521;53.584;9.938;2023-03-07T13:08:09;4.50;;;1.20;;
3022;SDS011;1521;53.584;9.938;2023-03-07T13:10:43;4.30;;;1.00;;
3022;SDS011;1521;53.584;9.938;2023-03-07T13:16:06;6.67;;;1.70;;
3022;SDS011;1521;53.584;9.938;2023-03-07T13:18:34;6.50;;;1.10;;
3022;SDS011;1521;53.584;9.938;2023-03-07T13:23:33;5.20;;;1.53;;
3022;SDS011;1521;53.584;9.938;2023-03-07T13:26:00;6.27;;;1.50;;
3022;SDS011;1521;53.584;9.938;2023-03-07T13:28:36;5.73;;;1.27;;
3022;SDS011;1521;53.584;9.938;2023-03-07T13:33:40;6.50;;;1.20;;
3022;SDS011;1521;53.584;9.938;2023-03-07T13:38:55;3.50;;;1.30;;
3022;SDS011;1521;53.584;9.938;2023-03-07T13:44:25;3.33;;;1.30;;
3022;SDS011;1521;53.584;9.938;2023-03-07T13:52:58;6.20;;;1.80;;
3022;SDS011;1521;53.584;9.938;2023-03-07T13:55:29;10.80;;;1.50;;
3022;SDS011;1521;53.584;9.938;2023-03-07T13:58:45;9.07;;;1.67;;
3022;SDS011;1521;53.584;9.938;2023-03-07T14:00:57;5.33;;;1.53;;
3022;SDS011;1521;53.584;9.938;2023-03-07T14:06:47;4.73;;;1.40;;
3022;SDS011;1521;53.584;9.938;2023-03-07T14:09:17;5.20;;;1.30;;
3022;SDS011;1521;53.584;9.938;2023-03-07T14:20:31;3.70;;;1.30;;
3022;SDS011;1521;53.584;9.938;2023-03-07T14:26:14;6.10;;;1.00;;
3022;SDS011;1521;53.584;9.938;2023-03-07T14:28:46;6.00;;;1.20;;
3022;SDS011;1521;53.584;9.938;2023-03-07T14:31:24;9.17;;;1.40;;
3022;SDS011;1521;53.584;9.938;2023-03-07T14:37:01;6.30;;;1.27;;
3022;SDS011;1521;53.584;9.938;2023-03-07T14:42:22;1.80;;;1.13;;
3022;SDS011;1521;53.584;9.938;2023-03-07T14:45:12;4.00;;;1.13;;
3022;SDS011;1521;53.584;9.938;2023-03-07T14:50:54;4.00;;;1.07;;
3022;SDS011;1521;53.584;9.938;2023-03-07T14:53:25;4.27;;;1.30;;
3022;SDS011;1521;53.584;9.938;2023-03-07T14:55:54;6.87;;;1.27;;
3022;SDS011;1521;53.584;9.938;2023-03-07T14:58:24;5.13;;;0.97;;
3022;SDS011;1521;53.584;9.938;2023-03-07T15:01:12;5.40;;;1.00;;
3022;SDS011;1521;53.584;9.938;2023-03-07T15:03:47;6.03;;;0.87;;
3022;SDS011;1521;53.584;9.938;2023-03-07T15:06:20;4.40;;;1.20;;
3022;SDS011;1521;53.584;9.938;2023-03-07T15:08:48;6.10;;;1.40;;
3022;SDS011;1521;53.584;9.938;2023-03-07T15:13:53;4.00;;;1.27;;
3022;SDS011;1521;53.584;9.938;2023-03-07T15:16:35;6.90;;;1.00;;
3022;SDS011;1521;53.584;9.938;2023-03-07T15:21:39;6.10;;;1.50;;
3022;SDS011;1521;53.584;9.938;2023-03-07T15:24:43;9.83;;;1.20;;
3022;SDS011;1521;53.584;9.938;2023-03-07T15:27:02;6.50;;;0.90;;
3022;SDS011;1521;53.584;9.938;2023-03-07T15:29:30;9.57;;;1.40;;
3022;SDS011;1521;53.584;9.938;2023-03-07T15:32:01;4.40;;;0.97;;
3022;SDS011;1521;53.584;9.938;2023-03-07T15:34:29;5.63;;;1.97;;
3022;SDS011;1521;53.584;9.938;2023-03-07T15:42:24;4.23;;;1.10;;
3022;SDS011;1521;53.584;9.938;2023-03-07T15:44:54;3.40;;;1.00;;
3022;SDS011;1521;53.584;9.938;2023-03-07T15:47:21;6.43;;;1.30;;
3022;SDS011;1521;53.584;9.938;2023-03-07T15:49:49;5.20;;;0.93;;
3022;SDS011;1521;53.584;9.938;2023-03-07T15:52:25;4.97;;;1.40;;
3022;SDS011;1521;53.584;9.938;2023-03-07T15:54:52;8.70;;;1.43;;
3022;SDS011;1521;53.584;9.938;2023-03-07T15:57:21;5.80;;;0.90;;
3022;SDS011;1521;53.584;9.938;2023-03-07T15:59:57;9.60;;;0.90;;
3022;SDS011;1521;53.584;9.938;2023-03-07T16:04:57;2.50;;;1.03;;
3022;SDS011;1521;53.584;9.938;2023-03-07T16:07:24;13.17;;;1.30;;
3022;SDS011;1521;53.584;9.938;2023-03-07T16:09:50;5.43;;;1.20;;
3022;SDS011;1521;53.584;9.938;2023-03-07T16:12:16;12.90;;;1.27;;
3022;SDS011;1521;53.584;9.938;2023-03-07T16:14:45;7.20;;;1.27;;
3022;SDS011;1521;53.584;9.938;2023-03-07T16:17:15;2.50;;;1.00;;
3022;SDS011;1521;53.584;9.938;2023-03-07T16:19:44;4.63;;;1.00;;
3022;SDS011;1521;53.584;9.938;2023-03-07T16:22:14;4.50;;;1.10;;
3022;SDS011;1521;53.584;9.938;2023-03-07T16:24:40;10.77;;;1.30;;
3022;SDS011;1521;53.584;9.938;2023-03-07T16:27:16;9.23;;;1.80;;
3022;SDS011;1521;53.584;9.938;2023-03-07T16:29:44;12.33;;;1.70;;
3022;SDS011;1521;53.584;9.938;2023-03-07T16:32:14;8.70;;;1.30;;
3022;SDS011;1521;53.584;9.938;2023-03-07T16:34:41;5.03;;;1.30;;
3022;SDS011;1521;53.584;9.938;2023-03-07T16:37:07;7.93;;;1.40;;
3022;SDS011;1521;53.584;9.938;2023-03-07T16:39:32;5.97;;;1.13;;
3022;SDS011;1521;53.584;9.938;2023-03-07T16:41:59;4.90;;;1.33;;
3022;SDS011;1521;53.584;9.938;2023-03-07T16:44:25;10.23;;;1.13;;
3022;SDS011;1521;53.584;9.938;2023-03-07T16:47:34;11.60;;;1.97;;
3022;SDS011;1521;53.584;9.938;2023-03-07T16:49:41;13.23;;;1.23;;
3022;SDS011;1521;53.584;9.938;2023-03-07T16:52:10;3.80;;;1.10;;
3022;SDS011;1521;53.584;9.938;2023-03-07T16:54:36;4.90;;;1.30;;
3022;SDS011;1521;53.584;9.938;2023-03-07T16:57:02;7.33;;;1.30;;
3022;SDS011;1521;53.584;9.938;2023-03-07T16:59:31;8.10;;;1.53;;
3022;SDS011;1521;53.584;9.938;2023-03-07T17:01:59;9.50;;;1.43;;
3022;SDS011;1521;53.584;9.938;2023-03-07T17:04:25;3.57;;;1.10;;
3022;SDS011;1521;53.584;9.938;2023-03-07T17:06:51;5.43;;;1.20;;
3022;SDS011;1521;53.584;9.938;2023-03-07T17:09:17;13.70;;;1.20;;
3022;SDS011;1521;53.584;9.938;2023-03-07T17:11:45;8.10;;;1.40;;
3022;SDS011;1521;53.584;9.938;2023-03-07T17:14:13;6.33;;;1.20;;
3022;SDS011;1521;53.584;9.938;2023-03-07T17:16:47;6.00;;;1.50;;
3022;SDS011;1521;53.584;9.938;2023-03-07T17:21:50;5.30;;;1.40;;
3022;SDS011;1521;53.584;9.938;2023-03-07T17:24:16;3.40;;;1.30;;
3022;SDS011;1521;53.584;9.938;2023-03-07T17:26:41;7.67;;;1.20;;
3022;SDS011;1521;53.584;9.938;2023-03-07T17:29:10;4.50;;;1.20;;
3022;SDS011;1521;53.584;9.938;2023-03-07T17:32:01;3.23;;;1.23;;
3022;SDS011;1521;53.584;9.938;2023-03-07T17:34:28;2.17;;;0.97;;
3022;SDS011;1521;53.584;9.938;2023-03-07T17:36:55;4.97;;;1.30;;
3022;SDS011;1521;53.584;9.938;2023-03-07T17:39:21;1.87;;;0.90;;
3022;SDS011;1521;53.584;9.938;2023-03-07T17:41:47;7.03;;;1.20;;
3022;SDS011;1521;53.584;9.938;2023-03-07T17:44:13;3.30;;;1.20;;
3022;SDS011;1521;53.584;9.938;2023-03-07T17:46:39;5.87;;;1.20;;